sensor_id;sensor_type;location;lat;lon;timestamp;temperature;humidity
65378;SHT31;51982;51.042;13.806;2023-05-15T00:01:22;16.46;77.14
65378;SHT31;51982;51.042;13.806;2023-05-15T00:03:49;16.54;77.08
65378;SHT31;51982;51.042;13.806;2023-05-15T00:06:16;16.56;76.95
65378;SHT31;51982;51.042;13.806;2023-05-15T00:08:41;16.60;76.91
65378;SHT31;51982;51.042;13.806;2023-05-15T00:11:06;16.54;76.79
65378;SHT31;51982;51.042;13.806;2023-05-15T00:13:31;16.51;76.85
65378;SHT31;51982;51.042;13.806;2023-05-15T00:15:57;16.48;76.89
65378;SHT31;51982;51.042;13.806;2023-05-15T00:18:22;16.51;77.03
65378;SHT31;51982;51.042;13.806;2023-05-15T00:20:47;16.50;77.02
65378;SHT31;51982;51.042;13.806;2023-05-15T00:23:12;16.50;77.04
65378;SHT31;51982;51.042;13.806;2023-05-15T00:25:38;16.48;76.95
65378;SHT31;51982;51.042;13.806;2023-05-15T00:28:03;16.46;76.95
65378;SHT31;51982;51.042;13.806;2023-05-15T00:30:28;16.47;76.86
65378;SHT31;51982;51.042;13.806;2023-05-15T00:32:53;16.44;76.94
65378;SHT31;51982;51.042;13.806;2023-05-15T00:35:19;16.36;77.01
65378;SHT31;51982;51.042;13.806;2023-05-15T00:37:44;16.33;77.16
65378;SHT31;51982;51.042;13.806;2023-05-15T00:40:11;16.34;77.08
65378;SHT31;51982;51.042;13.806;2023-05-15T00:42:37;16.38;77.22
65378;SHT31;51982;51.042;13.806;2023-05-15T00:45:04;16.41;77.26
65378;SHT31;51982;51.042;13.806;2023-05-15T00:47:31;16.37;77.13
65378;SHT31;51982;51.042;13.806;2023-05-15T00:49:57;16.40;77.14
65378;SHT31;51982;51.042;13.806;2023-05-15T00:52:22;16.37;77.26
65378;SHT31;51982;51.042;13.806;2023-05-15T00:54:48;16.34;77.25
65378;SHT31;51982;51.042;13.806;2023-05-15T00:57:14;16.28;77.30
65378;SHT31;51982;51.042;13.806;2023-05-15T00:59:40;16.33;77.30
65378;SHT31;51982;51.042;13.806;2023-05-15T01:02:07;16.30;77.47
65378;SHT31;51982;51.042;13.806;2023-05-15T01:04:32;16.30;77.57
65378;SHT31;51982;51.042;13.806;2023-05-15T01:06:58;16.30;77.56
65378;SHT31;51982;51.042;13.806;2023-05-15T01:09:24;16.30;77.58
65378;SHT31;51982;51.042;13.806;2023-05-15T01:11:50;16.26;77.59
65378;SHT31;51982;51.042;13.806;2023-05-15T01:14:17;16.26;77.70
65378;SHT31;51982;51.042;13.806;2023-05-15T01:16:43;16.20;77.54
65378;SHT31;51982;51.042;13.806;2023-05-15T01:19:08;16.12;77.49
65378;SHT31;51982;51.042;13.806;2023-05-15T01:22:03;16.10;77.82
65378;SHT31;51982;51.042;13.806;2023-05-15T01:24:48;16.17;77.67
65378;SHT31;51982;51.042;13.806;2023-05-15T01:27:21;16.16;77.46
65378;SHT31;51982;51.042;13.806;2023-05-15T01:30:11;16.16;77.31
65378;SHT31;51982;51.042;13.806;2023-05-15T01:33:17;16.06;77.65
65378;SHT31;51982;51.042;13.806;2023-05-15T01:36:03;16.09;77.57
65378;SHT31;51982;51.042;13.806;2023-05-15T01:38:38;16.09;77.67
65378;SHT31;51982;51.042;13.806;2023-05-15T01:41:22;16.03;77.88
65378;SHT31;51982;51.042;13.806;2023-05-15T01:43:51;16.05;77.75
65378;SHT31;51982;51.042;13.806;2023-05-15T01:46:21;16.03;77.87
65378;SHT31;51982;51.042;13.806;2023-05-15T01:48:48;15.95;78.12
65378;SHT31;51982;51.042;13.806;2023-05-15T01:51:15;15.96;78.30
65378;SHT31;51982;51.042;13.806;2023-05-15T01:53:42;15.95;78.46
65378;SHT31;51982;51.042;13.806;2023-05-15T01:56:12;15.89;78.57
65378;SHT31;51982;51.042;13.806;2023-05-15T01:58:38;15.81;78.52
65378;SHT31;51982;51.042;13.806;2023-05-15T02:01:04;15.81;78.49
65378;SHT31;51982;51.042;13.806;2023-05-15T02:03:31;15.82;78.46
65378;SHT31;51982;51.042;13.806;2023-05-15T02:06:04;15.87;78.39
65378;SHT31;51982;51.042;13.806;2023-05-15T02:08:31;15.92;78.36
65378;SHT31;51982;51.042;13.806;2023-05-15T02:10:57;15.90;78.30
65378;SHT31;51982;51.042;13.806;2023-05-15T02:13:25;15.90;78.38
65378;SHT31;51982;51.042;13.806;2023-05-15T02:15:50;15.90;78.43
65378;SHT31;51982;51.042;13.806;2023-05-15T02:18:16;15.97;78.48
65378;SHT31;51982;51.042;13.806;2023-05-15T02:20:41;15.99;78.45
65378;SHT31;51982;51.042;13.806;2023-05-15T02:23:06;15.92;78.42
65378;SHT31;51982;51.042;13.806;2023-05-15T02:25:39;15.89;78.52
65378;SHT31;51982;51.042;13.806;2023-05-15T02:28:11;15.93;78.48
65378;SHT31;51982;51.042;13.806;2023-05-15T02:30:45;15.99;78.57
65378;SHT31;51982;51.042;13.806;2023-05-15T02:33:25;15.89;78.70
65378;SHT31;51982;51.042;13.806;2023-05-15T02:38:32;15.82;78.95
65378;SHT31;51982;51.042;13.806;2023-05-15T02:40:59;15.79;79.29
65378;SHT31;51982;51.042;13.806;2023-05-15T02:43:25;15.83;79.44
65378;SHT31;51982;51.042;13.806;2023-05-15T02:45:51;15.86;79.62
65378;SHT31;51982;51.042;13.806;2023-05-15T02:48:17;15.86;79.79
65378;SHT31;51982;51.042;13.806;2023-05-15T02:50:43;15.82;79.83
65378;SHT31;51982;51.042;13.806;2023-05-15T02:53:09;15.82;80.01
65378;SHT31;51982;51.042;13.806;2023-05-15T02:55:35;15.83;80.06
65378;SHT31;51982;51.042;13.806;2023-05-15T02:58:01;15.83;80.07
65378;SHT31;51982;51.042;13.806;2023-05-15T03:00:26;15.85;80.12
65378;SHT31;51982;51.042;13.806;2023-05-15T03:02:52;15.83;80.11
65378;SHT31;51982;51.042;13.806;2023-05-15T03:05:17;15.82;80.17
65378;SHT31;51982;51.042;13.806;2023-05-15T03:07:43;15.76;80.34
65378;SHT31;51982;51.042;13.806;2023-05-15T03:10:08;15.72;80.61
65378;SHT31;51982;51.042;13.806;2023-05-15T03:12:33;15.66;80.74
65378;SHT31;51982;51.042;13.806;2023-05-15T03:14:59;15.61;80.77
65378;SHT31;51982;51.042;13.806;2023-05-15T03:17:25;15.55;80.89
65378;SHT31;51982;51.042;13.806;2023-05-15T03:19:51;15.62;80.86
65378;SHT31;51982;51.042;13.806;2023-05-15T03:22:16;15.58;81.05
65378;SHT31;51982;51.042;13.806;2023-05-15T03:24:41;15.55;81.10
65378;SHT31;51982;51.042;13.806;2023-05-15T03:27:06;15.51;81.21
65378;SHT31;51982;51.042;13.806;2023-05-15T03:29:31;15.42;81.37
65378;SHT31;51982;51.042;13.806;2023-05-15T03:31:57;15.44;81.40
65378;SHT31;51982;51.042;13.806;2023-05-15T03:34:22;15.45;81.26
65378;SHT31;51982;51.042;13.806;2023-05-15T03:36:47;15.49;81.14
65378;SHT31;51982;51.042;13.806;2023-05-15T03:39:12;15.52;81.01
65378;SHT31;51982;51.042;13.806;2023-05-15T03:41:38;15.54;80.94
65378;SHT31;51982;51.042;13.806;2023-05-15T03:44:03;15.55;80.93
65378;SHT31;51982;51.042;13.806;2023-05-15T03:46:28;15.54;80.76
65378;SHT31;51982;51.042;13.806;2023-05-15T03:48:53;15.56;80.58
65378;SHT31;51982;51.042;13.806;2023-05-15T03:51:20;15.55;80.49
65378;SHT31;51982;51.042;13.806;2023-05-15T03:53:46;15.58;80.53
65378;SHT31;51982;51.042;13.806;2023-05-15T03:56:11;15.59;80.45
65378;SHT31;51982;51.042;13.806;2023-05-15T03:58:36;15.58;80.49
65378;SHT31;51982;51.042;13.806;2023-05-15T04:01:01;15.56;80.43
65378;SHT31;51982;51.042;13.806;2023-05-15T04:03:26;15.56;80.58
65378;SHT31;51982;51.042;13.806;2023-05-15T04:05:52;15.61;80.80
65378;SHT31;51982;51.042;13.806;2023-05-15T04:08:17;15.59;80.76
65378;SHT31;51982;51.042;13.806;2023-05-15T04:10:42;15.61;80.80
65378;SHT31;51982;51.042;13.806;2023-05-15T04:13:07;15.54;80.86
65378;SHT31;51982;51.042;13.806;2023-05-15T04:15:34;15.52;80.93
65378;SHT31;51982;51.042;13.806;2023-05-15T04:17:59;15.55;80.96
65378;SHT31;51982;51.042;13.806;2023-05-15T04:20:24;15.55;81.46
65378;SHT31;51982;51.042;13.806;2023-05-15T04:22:50;15.59;81.41
65378;SHT31;51982;51.042;13.806;2023-05-15T04:25:16;15.61;81.36
65378;SHT31;51982;51.042;13.806;2023-05-15T04:27:43;15.59;81.54
65378;SHT31;51982;51.042;13.806;2023-05-15T04:30:09;15.59;81.76
65378;SHT31;51982;51.042;13.806;2023-05-15T04:32:35;15.65;81.77
65378;SHT31;51982;51.042;13.806;2023-05-15T04:35:01;15.63;81.67
65378;SHT31;51982;51.042;13.806;2023-05-15T04:37:27;15.63;81.80
65378;SHT31;51982;51.042;13.806;2023-05-15T04:39:52;15.67;81.87
65378;SHT31;51982;51.042;13.806;2023-05-15T04:42:17;15.63;81.95
65378;SHT31;51982;51.042;13.806;2023-05-15T04:44:42;15.69;82.09
65378;SHT31;51982;51.042;13.806;2023-05-15T04:47:09;15.70;82.29
65378;SHT31;51982;51.042;13.806;2023-05-15T04:49:34;15.75;82.44
65378;SHT31;51982;51.042;13.806;2023-05-15T04:51:59;15.72;82.43
65378;SHT31;51982;51.042;13.806;2023-05-15T04:54:24;15.73;82.34
65378;SHT31;51982;51.042;13.806;2023-05-15T04:56:49;15.78;82.38
65378;SHT31;51982;51.042;13.806;2023-05-15T04:59:15;15.82;82.61
65378;SHT31;51982;51.042;13.806;2023-05-15T05:01:41;15.83;82.58
65378;SHT31;51982;51.042;13.806;2023-05-15T05:04:07;15.85;82.47
65378;SHT31;51982;51.042;13.806;2023-05-15T05:06:32;15.82;82.49
65378;SHT31;51982;51.042;13.806;2023-05-15T05:08:57;15.85;82.66
65378;SHT31;51982;51.042;13.806;2023-05-15T05:11:23;15.86;82.48
65378;SHT31;51982;51.042;13.806;2023-05-15T05:13:48;15.89;82.57
65378;SHT31;51982;51.042;13.806;2023-05-15T05:16:14;15.90;82.36
65378;SHT31;51982;51.042;13.806;2023-05-15T05:18:39;15.95;82.49
65378;SHT31;51982;51.042;13.806;2023-05-15T05:21:04;15.97;82.43
65378;SHT31;51982;51.042;13.806;2023-05-15T05:23:30;16.00;82.57
65378;SHT31;51982;51.042;13.806;2023-05-15T05:25:55;16.00;82.71
65378;SHT31;51982;51.042;13.806;2023-05-15T05:28:21;16.03;82.86
65378;SHT31;51982;51.042;13.806;2023-05-15T05:30:46;15.97;82.58
65378;SHT31;51982;51.042;13.806;2023-05-15T05:33:12;15.97;82.58
65378;SHT31;51982;51.042;13.806;2023-05-15T05:35:38;16.00;82.77
65378;SHT31;51982;51.042;13.806;2023-05-15T05:38:03;16.06;82.97
65378;SHT31;51982;51.042;13.806;2023-05-15T05:40:28;16.02;82.60
65378;SHT31;51982;51.042;13.806;2023-05-15T05:42:54;16.05;82.57
65378;SHT31;51982;51.042;13.806;2023-05-15T05:45:19;16.07;82.74
65378;SHT31;51982;51.042;13.806;2023-05-15T05:48:02;16.10;82.50
65378;SHT31;51982;51.042;13.806;2023-05-15T05:50:27;16.05;82.70
65378;SHT31;51982;51.042;13.806;2023-05-15T05:52:53;16.05;82.75
65378;SHT31;51982;51.042;13.806;2023-05-15T05:55:18;16.07;82.71
65378;SHT31;51982;51.042;13.806;2023-05-15T05:57:43;16.02;82.67
65378;SHT31;51982;51.042;13.806;2023-05-15T06:00:09;16.00;82.73
65378;SHT31;51982;51.042;13.806;2023-05-15T06:02:39;16.00;82.73
65378;SHT31;51982;51.042;13.806;2023-05-15T06:05:04;16.06;82.62
65378;SHT31;51982;51.042;13.806;2023-05-15T06:07:30;16.05;82.80
65378;SHT31;51982;51.042;13.806;2023-05-15T06:09:56;16.07;82.82
65378;SHT31;51982;51.042;13.806;2023-05-15T06:12:21;16.12;82.63
65378;SHT31;51982;51.042;13.806;2023-05-15T06:14:46;16.20;82.59
65378;SHT31;51982;51.042;13.806;2023-05-15T06:17:11;16.20;82.79
65378;SHT31;51982;51.042;13.806;2023-05-15T06:19:37;16.23;82.32
65378;SHT31;51982;51.042;13.806;2023-05-15T06:22:02;16.24;82.41
65378;SHT31;51982;51.042;13.806;2023-05-15T06:24:27;16.26;82.40
65378;SHT31;51982;51.042;13.806;2023-05-15T06:26:53;16.31;82.38
65378;SHT31;51982;51.042;13.806;2023-05-15T06:29:18;16.36;82.71
65378;SHT31;51982;51.042;13.806;2023-05-15T06:31:43;16.34;82.86
65378;SHT31;51982;51.042;13.806;2023-05-15T06:34:08;16.36;83.05
65378;SHT31;51982;51.042;13.806;2023-05-15T06:36:33;16.44;82.91
65378;SHT31;51982;51.042;13.806;2023-05-15T06:38:59;16.50;82.58
65378;SHT31;51982;51.042;13.806;2023-05-15T06:41:24;16.48;82.72
65378;SHT31;51982;51.042;13.806;2023-05-15T06:43:50;16.50;82.36
65378;SHT31;51982;51.042;13.806;2023-05-15T06:46:15;16.51;82.21
65378;SHT31;51982;51.042;13.806;2023-05-15T06:48:43;16.53;82.15
65378;SHT31;51982;51.042;13.806;2023-05-15T06:51:08;16.53;82.21
65378;SHT31;51982;51.042;13.806;2023-05-15T06:53:33;16.53;82.32
65378;SHT31;51982;51.042;13.806;2023-05-15T06:56:09;16.58;82.39
65378;SHT31;51982;51.042;13.806;2023-05-15T06:58:34;16.63;82.13
65378;SHT31;51982;51.042;13.806;2023-05-15T07:01:00;16.67;82.10
65378;SHT31;51982;51.042;13.806;2023-05-15T07:03:27;16.69;82.13
65378;SHT31;51982;51.042;13.806;2023-05-15T07:05:53;16.71;82.02
65378;SHT31;51982;51.042;13.806;2023-05-15T07:08:18;16.79;81.96
65378;SHT31;51982;51.042;13.806;2023-05-15T07:10:43;16.84;81.84
65378;SHT31;51982;51.042;13.806;2023-05-15T07:13:08;16.89;81.49
65378;SHT31;51982;51.042;13.806;2023-05-15T07:15:34;16.95;81.50
65378;SHT31;51982;51.042;13.806;2023-05-15T07:17:59;16.98;81.52
65378;SHT31;51982;51.042;13.806;2023-05-15T07:20:24;17.04;81.39
65378;SHT31;51982;51.042;13.806;2023-05-15T07:22:50;17.05;81.10
65378;SHT31;51982;51.042;13.806;2023-05-15T07:25:15;17.12;81.16
65378;SHT31;51982;51.042;13.806;2023-05-15T07:27:40;17.22;81.10
65378;SHT31;51982;51.042;13.806;2023-05-15T07:30:06;17.30;81.29
65378;SHT31;51982;51.042;13.806;2023-05-15T07:32:31;17.38;81.23
65378;SHT31;51982;51.042;13.806;2023-05-15T07:34:57;17.42;80.89
65378;SHT31;51982;51.042;13.806;2023-05-15T07:37:23;17.45;80.91
65378;SHT31;51982;51.042;13.806;2023-05-15T07:39:49;17.46;79.85
65378;SHT31;51982;51.042;13.806;2023-05-15T07:42:14;17.56;79.66
65378;SHT31;51982;51.042;13.806;2023-05-15T07:44:39;17.57;78.93
65378;SHT31;51982;51.042;13.806;2023-05-15T07:47:05;17.63;78.80
65378;SHT31;51982;51.042;13.806;2023-05-15T07:49:30;17.69;78.84
65378;SHT31;51982;51.042;13.806;2023-05-15T07:51:55;17.79;78.13
65378;SHT31;51982;51.042;13.806;2023-05-15T07:54:20;17.80;77.77
65378;SHT31;51982;51.042;13.806;2023-05-15T07:56:46;17.86;77.46
65378;SHT31;51982;51.042;13.806;2023-05-15T07:59:11;17.81;77.07
65378;SHT31;51982;51.042;13.806;2023-05-15T08:01:36;17.83;76.67
65378;SHT31;51982;51.042;13.806;2023-05-15T08:04:06;17.83;77.02
65378;SHT31;51982;51.042;13.806;2023-05-15T08:06:31;17.87;76.65
65378;SHT31;51982;51.042;13.806;2023-05-15T08:08:57;17.87;76.53
65378;SHT31;51982;51.042;13.806;2023-05-15T08:11:22;17.87;77.01
65378;SHT31;51982;51.042;13.806;2023-05-15T08:13:47;17.89;76.51
65378;SHT31;51982;51.042;13.806;2023-05-15T08:16:12;17.87;76.24
65378;SHT31;51982;51.042;13.806;2023-05-15T08:18:37;17.96;76.65
65378;SHT31;51982;51.042;13.806;2023-05-15T08:21:03;17.97;75.83
65378;SHT31;51982;51.042;13.806;2023-05-15T08:23:28;18.00;75.96
65378;SHT31;51982;51.042;13.806;2023-05-15T08:25:53;18.04;76.27
65378;SHT31;51982;51.042;13.806;2023-05-15T08:28:18;18.11;75.81
65378;SHT31;51982;51.042;13.806;2023-05-15T08:30:44;17.97;75.39
65378;SHT31;51982;51.042;13.806;2023-05-15T08:33:09;17.96;75.53
65378;SHT31;51982;51.042;13.806;2023-05-15T08:35:34;17.93;75.58
65378;SHT31;51982;51.042;13.806;2023-05-15T08:37:59;17.94;75.45
65378;SHT31;51982;51.042;13.806;2023-05-15T08:40:24;17.97;75.41
65378;SHT31;51982;51.042;13.806;2023-05-15T08:42:54;17.87;75.26
65378;SHT31;51982;51.042;13.806;2023-05-15T08:45:19;17.89;75.35
65378;SHT31;51982;51.042;13.806;2023-05-15T08:47:45;17.90;75.39
65378;SHT31;51982;51.042;13.806;2023-05-15T08:50:12;17.94;75.42
65378;SHT31;51982;51.042;13.806;2023-05-15T08:52:45;17.96;75.28
65378;SHT31;51982;51.042;13.806;2023-05-15T08:55:13;17.94;75.36
65378;SHT31;51982;51.042;13.806;2023-05-15T08:57:42;18.03;75.56
65378;SHT31;51982;51.042;13.806;2023-05-15T09:00:11;18.05;75.61
65378;SHT31;51982;51.042;13.806;2023-05-15T09:02:39;18.13;75.54
65378;SHT31;51982;51.042;13.806;2023-05-15T09:05:05;18.15;75.59
65378;SHT31;51982;51.042;13.806;2023-05-15T09:07:31;18.18;75.50
65378;SHT31;51982;51.042;13.806;2023-05-15T09:09:58;18.23;75.76
65378;SHT31;51982;51.042;13.806;2023-05-15T09:12:24;18.23;75.64
65378;SHT31;51982;51.042;13.806;2023-05-15T09:14:50;18.27;75.77
65378;SHT31;51982;51.042;13.806;2023-05-15T09:17:15;18.34;75.90
65378;SHT31;51982;51.042;13.806;2023-05-15T09:19:41;18.42;75.73
65378;SHT31;51982;51.042;13.806;2023-05-15T09:22:18;18.42;75.00
65378;SHT31;51982;51.042;13.806;2023-05-15T09:24:48;18.45;75.06
65378;SHT31;51982;51.042;13.806;2023-05-15T09:27:15;18.55;75.21
65378;SHT31;51982;51.042;13.806;2023-05-15T09:29:41;18.64;75.00
65378;SHT31;51982;51.042;13.806;2023-05-15T09:32:14;18.65;74.44
65378;SHT31;51982;51.042;13.806;2023-05-15T09:34:41;18.72;74.21
65378;SHT31;51982;51.042;13.806;2023-05-15T09:37:09;18.76;73.91
65378;SHT31;51982;51.042;13.806;2023-05-15T09:39:42;18.84;74.01
65378;SHT31;51982;51.042;13.806;2023-05-15T09:42:10;18.91;73.91
65378;SHT31;51982;51.042;13.806;2023-05-15T09:44:42;18.98;73.72
65378;SHT31;51982;51.042;13.806;2023-05-15T09:47:09;18.96;73.37
65378;SHT31;51982;51.042;13.806;2023-05-15T09:49:35;19.02;73.54
65378;SHT31;51982;51.042;13.806;2023-05-15T09:52:01;19.09;73.49
65378;SHT31;51982;51.042;13.806;2023-05-15T09:54:26;19.12;73.13
65378;SHT31;51982;51.042;13.806;2023-05-15T09:56:54;19.13;72.71
65378;SHT31;51982;51.042;13.806;2023-05-15T09:59:19;19.16;72.63
65378;SHT31;51982;51.042;13.806;2023-05-15T10:01:49;19.26;72.60
65378;SHT31;51982;51.042;13.806;2023-05-15T10:04:16;19.33;72.62
65378;SHT31;51982;51.042;13.806;2023-05-15T10:06:44;19.34;72.38
65378;SHT31;51982;51.042;13.806;2023-05-15T10:09:10;19.41;72.31
65378;SHT31;51982;51.042;13.806;2023-05-15T10:11:38;19.36;71.55
65378;SHT31;51982;51.042;13.806;2023-05-15T10:14:08;19.28;71.31
65378;SHT31;51982;51.042;13.806;2023-05-15T10:16:35;19.38;71.55
65378;SHT31;51982;51.042;13.806;2023-05-15T10:19:08;19.49;71.66
65378;SHT31;51982;51.042;13.806;2023-05-15T10:21:36;19.57;71.69
65378;SHT31;51982;51.042;13.806;2023-05-15T10:24:02;19.61;70.86
65378;SHT31;51982;51.042;13.806;2023-05-15T10:26:35;19.63;70.59
65378;SHT31;51982;51.042;13.806;2023-05-15T10:29:13;19.71;69.99
65378;SHT31;51982;51.042;13.806;2023-05-15T10:31:39;19.78;70.15
65378;SHT31;51982;51.042;13.806;2023-05-15T10:34:08;19.78;69.52
65378;SHT31;51982;51.042;13.806;2023-05-15T10:36:35;19.77;68.93
65378;SHT31;51982;51.042;13.806;2023-05-15T10:39:02;19.75;68.98
65378;SHT31;51982;51.042;13.806;2023-05-15T10:41:29;19.79;69.08
65378;SHT31;51982;51.042;13.806;2023-05-15T10:43:57;19.77;68.56
65378;SHT31;51982;51.042;13.806;2023-05-15T10:46:22;19.77;68.24
65378;SHT31;51982;51.042;13.806;2023-05-15T10:48:49;19.79;68.40
65378;SHT31;51982;51.042;13.806;2023-05-15T10:51:26;19.79;67.58
65378;SHT31;51982;51.042;13.806;2023-05-15T10:53:52;19.74;67.10
65378;SHT31;51982;51.042;13.806;2023-05-15T10:56:18;19.77;67.73
65378;SHT31;51982;51.042;13.806;2023-05-15T10:58:47;19.81;67.66
65378;SHT31;51982;51.042;13.806;2023-05-15T11:01:32;19.91;68.33
65378;SHT31;51982;51.042;13.806;2023-05-15T11:04:08;19.95;67.53
65378;SHT31;51982;51.042;13.806;2023-05-15T11:06:35;19.99;67.51
65378;SHT31;51982;51.042;13.806;2023-05-15T11:14:20;20.15;66.60
65378;SHT31;51982;51.042;13.806;2023-05-15T11:24:47;20.30;64.00
65378;SHT31;51982;51.042;13.806;2023-05-15T11:27:19;20.42;65.01
65378;SHT31;51982;51.042;13.806;2023-05-15T11:30:07;20.53;64.70
65378;SHT31;51982;51.042;13.806;2023-05-15T11:35:20;20.69;64.72
65378;SHT31;51982;51.042;13.806;2023-05-15T11:37:48;20.76;64.49
65378;SHT31;51982;51.042;13.806;2023-05-15T11:43:01;20.94;64.99
65378;SHT31;51982;51.042;13.806;2023-05-15T11:45:28;21.00;64.99
65378;SHT31;51982;51.042;13.806;2023-05-15T11:47:54;20.96;64.46
65378;SHT31;51982;51.042;13.806;2023-05-15T11:50:19;20.89;64.99
65378;SHT31;51982;51.042;13.806;2023-05-15T11:52:46;20.86;65.38
65378;SHT31;51982;51.042;13.806;2023-05-15T11:55:13;20.68;64.83
65378;SHT31;51982;51.042;13.806;2023-05-15T11:57:39;20.59;65.20
65378;SHT31;51982;51.042;13.806;2023-05-15T12:00:04;20.43;65.40
65378;SHT31;51982;51.042;13.806;2023-05-15T12:02:30;20.28;65.80
65378;SHT31;51982;51.042;13.806;2023-05-15T12:04:55;20.14;66.11
65378;SHT31;51982;51.042;13.806;2023-05-15T12:07:21;20.02;66.55
65378;SHT31;51982;51.042;13.806;2023-05-15T12:09:50;19.95;67.40
65378;SHT31;51982;51.042;13.806;2023-05-15T12:12:16;19.89;68.80
65378;SHT31;51982;51.042;13.806;2023-05-15T12:14:42;19.84;69.60
65378;SHT31;51982;51.042;13.806;2023-05-15T12:17:07;19.74;70.18
65378;SHT31;51982;51.042;13.806;2023-05-15T12:19:33;19.67;70.06
65378;SHT31;51982;51.042;13.806;2023-05-15T12:21:58;19.64;69.88
65378;SHT31;51982;51.042;13.806;2023-05-15T12:24:25;19.64;70.17
65378;SHT31;51982;51.042;13.806;2023-05-15T12:26:50;19.60;70.52
65378;SHT31;51982;51.042;13.806;2023-05-15T12:29:16;19.61;70.80
65378;SHT31;51982;51.042;13.806;2023-05-15T12:31:41;19.61;70.64
65378;SHT31;51982;51.042;13.806;2023-05-15T12:34:08;19.56;70.65
65378;SHT31;51982;51.042;13.806;2023-05-15T12:36:33;19.67;70.86
65378;SHT31;51982;51.042;13.806;2023-05-15T12:39:04;19.67;70.20
65378;SHT31;51982;51.042;13.806;2023-05-15T12:41:30;19.73;70.21
65378;SHT31;51982;51.042;13.806;2023-05-15T12:43:55;19.78;70.31
65378;SHT31;51982;51.042;13.806;2023-05-15T12:46:22;19.85;70.48
65378;SHT31;51982;51.042;13.806;2023-05-15T12:48:48;19.89;70.21
65378;SHT31;51982;51.042;13.806;2023-05-15T12:51:15;19.92;69.55
65378;SHT31;51982;51.042;13.806;2023-05-15T12:53:41;20.04;69.68
65378;SHT31;51982;51.042;13.806;2023-05-15T12:56:07;20.15;69.74
65378;SHT31;51982;51.042;13.806;2023-05-15T12:58:33;20.29;69.53
65378;SHT31;51982;51.042;13.806;2023-05-15T13:00:58;20.40;69.43
65378;SHT31;51982;51.042;13.806;2023-05-15T13:03:23;20.52;69.25
65378;SHT31;51982;51.042;13.806;2023-05-15T13:05:50;20.59;69.23
65378;SHT31;51982;51.042;13.806;2023-05-15T13:08:16;20.70;69.44
65378;SHT31;51982;51.042;13.806;2023-05-15T13:10:43;20.73;69.03
65378;SHT31;51982;51.042;13.806;2023-05-15T13:13:08;20.70;68.62
65378;SHT31;51982;51.042;13.806;2023-05-15T13:15:36;20.63;68.65
65378;SHT31;51982;51.042;13.806;2023-05-15T13:18:12;20.53;67.66
65378;SHT31;51982;51.042;13.806;2023-05-15T13:20:46;20.40;70.30
65378;SHT31;51982;51.042;13.806;2023-05-15T13:23:16;19.95;79.11
65378;SHT31;51982;51.042;13.806;2023-05-15T13:25:42;19.41;81.33
65378;SHT31;51982;51.042;13.806;2023-05-15T13:28:08;19.02;84.48
65378;SHT31;51982;51.042;13.806;2023-05-15T13:30:37;18.93;86.42
65378;SHT31;51982;51.042;13.806;2023-05-15T13:33:06;18.84;86.65
65378;SHT31;51982;51.042;13.806;2023-05-15T13:35:32;18.76;86.68
65378;SHT31;51982;51.042;13.806;2023-05-15T13:37:57;18.79;87.61
65378;SHT31;51982;51.042;13.806;2023-05-15T13:40:22;18.85;88.19
65378;SHT31;51982;51.042;13.806;2023-05-15T13:42:47;18.86;88.07
65378;SHT31;51982;51.042;13.806;2023-05-15T13:45:14;18.86;88.08
65378;SHT31;51982;51.042;13.806;2023-05-15T13:47:41;18.84;88.19
65378;SHT31;51982;51.042;13.806;2023-05-15T13:50:08;18.81;87.91
65378;SHT31;51982;51.042;13.806;2023-05-15T13:52:34;18.86;87.98
65378;SHT31;51982;51.042;13.806;2023-05-15T13:54:59;18.84;87.54
65378;SHT31;51982;51.042;13.806;2023-05-15T13:57:24;18.89;87.75
65378;SHT31;51982;51.042;13.806;2023-05-15T13:59:50;18.93;87.57
65378;SHT31;51982;51.042;13.806;2023-05-15T14:02:16;18.92;87.09
65378;SHT31;51982;51.042;13.806;2023-05-15T14:04:41;18.99;87.61
65378;SHT31;51982;51.042;13.806;2023-05-15T14:07:06;19.03;88.62
65378;SHT31;51982;51.042;13.806;2023-05-15T14:09:31;19.05;88.01
65378;SHT31;51982;51.042;13.806;2023-05-15T14:11:57;19.15;88.44
65378;SHT31;51982;51.042;13.806;2023-05-15T14:14:22;19.15;87.65
65378;SHT31;51982;51.042;13.806;2023-05-15T14:16:47;19.23;88.01
65378;SHT31;51982;51.042;13.806;2023-05-15T14:19:12;19.28;89.01
65378;SHT31;51982;51.042;13.806;2023-05-15T14:21:38;19.33;88.83
65378;SHT31;51982;51.042;13.806;2023-05-15T14:24:04;19.40;89.05
65378;SHT31;51982;51.042;13.806;2023-05-15T14:26:29;19.43;89.33
65378;SHT31;51982;51.042;13.806;2023-05-15T14:28:54;19.46;88.69
65378;SHT31;51982;51.042;13.806;2023-05-15T14:31:20;19.50;89.02
65378;SHT31;51982;51.042;13.806;2023-05-15T14:33:45;19.56;89.21
65378;SHT31;51982;51.042;13.806;2023-05-15T14:36:10;19.61;89.33
65378;SHT31;51982;51.042;13.806;2023-05-15T14:38:37;19.67;88.94
65378;SHT31;51982;51.042;13.806;2023-05-15T14:41:02;19.70;89.01
65378;SHT31;51982;51.042;13.806;2023-05-15T14:43:27;19.67;87.52
65378;SHT31;51982;51.042;13.806;2023-05-15T14:45:54;19.64;87.44
65378;SHT31;51982;51.042;13.806;2023-05-15T14:48:19;19.60;86.45
65378;SHT31;51982;51.042;13.806;2023-05-15T14:50:44;19.58;84.58
65378;SHT31;51982;51.042;13.806;2023-05-15T14:53:10;19.58;84.69
65378;SHT31;51982;51.042;13.806;2023-05-15T14:55:35;19.56;85.00
65378;SHT31;51982;51.042;13.806;2023-05-15T14:58:00;19.51;83.50
65378;SHT31;51982;51.042;13.806;2023-05-15T15:00:25;19.49;83.23
65378;SHT31;51982;51.042;13.806;2023-05-15T15:02:51;19.40;82.18
65378;SHT31;51982;51.042;13.806;2023-05-15T15:05:16;19.38;82.46
65378;SHT31;51982;51.042;13.806;2023-05-15T15:08:04;19.37;82.39
65378;SHT31;51982;51.042;13.806;2023-05-15T15:10:31;19.45;83.70
65378;SHT31;51982;51.042;13.806;2023-05-15T15:12:57;19.47;83.79
65378;SHT31;51982;51.042;13.806;2023-05-15T15:15:22;19.50;83.02
65378;SHT31;51982;51.042;13.806;2023-05-15T15:17:48;19.50;82.66
65378;SHT31;51982;51.042;13.806;2023-05-15T15:20:15;19.50;83.05
65378;SHT31;51982;51.042;13.806;2023-05-15T15:22:41;19.56;83.27
65378;SHT31;51982;51.042;13.806;2023-05-15T15:25:06;19.54;81.24
65378;SHT31;51982;51.042;13.806;2023-05-15T15:27:32;19.51;79.98
65378;SHT31;51982;51.042;13.806;2023-05-15T15:29:58;19.50;79.48
65378;SHT31;51982;51.042;13.806;2023-05-15T15:32:23;19.50;80.30
65378;SHT31;51982;51.042;13.806;2023-05-15T15:34:48;19.53;80.33